Diamond, Washington
Current Conditions -  °F | °C
As of 3:53 PM on Monday 20 Oct 2014 (Local Time) from KPUW Reporting Station
Clear Clear  
Wind Chill: 69°   Ceiling: Unl
Heat Index: 69°   Visibility: 8mi
Dew Point: 41°   Wind: 9mph
Humidity: 36%   Direction: 290°WNW
Pressure: 29.77"   Gusts: NA
Location:  46.8882°N, 117.4°W
Report Text: KPUW 202253Z AUTO 29008KT 8SM CLR 21/05 A2977 RMK AO2 SLP072 T02060050
Loading
Personal Weather Stations






























Interactive Weather Map
Tropical Storm Tracking
New forecast layout! Learn more

10-Day Weather Forecast

Advertisements
Track Severe Weather on mobile